Adamsville, RI

1:59 PM EDT on October 20, 2014 (GMT -0400)
Little Compton - Great West Road | Change Station
CLOSE
Current Station
Personal Weather Station
Location: Little Compton, RI
Elevation: 101 ft
Nearby Weather Stations

Elev 101 ft 41.53 °N, 71.19 °W | Updated 25 seconds ago

Clear
Clear
53.0 °F
Feels Like 53.0 °F
N
6.0
Wind Variable Wind from WSW
Gusts 12.0 mph

Today
High -- | Low -- °F
--% Chance of Precip.
Yesterday
High -- | Low -- °F
Precip. -- in
7:02 AM 5:55 PM
Waning Crescent, 10% visible
Pressure 30.02 in
Visibility 10.0 miles
Clouds Clear
Dew Point 43 °F
Humidity 69%
Rainfall 0.00 in
Snow Depth Not available.
UV 4 out of 12
Pollen 1.20 out of 12
Ozone Good
PM2.5 Good
Flu Activity No Activity
METAR KUUU 201753Z AUTO 20007KT 170V230 10SM CLR 12/03 A3002 RMK AO2 SLP164 6//// T01220028 10133 20056 58023 PNO $

More Conditions Fewer Conditions

Pressure 30.02 in
Visibility 10.0 miles
Clouds Clear
Dew Point 43 °F
Humidity 69%
Rainfall 0.00 in
Snow Depth Not available.
UV 4 out of 12
Pollen 1.20 out of 12
Ozone Good
PM2.5 Good
Flu Activity No Activity
METAR KUUU 201753Z AUTO 20007KT 170V230 10SM CLR 12/03 A3002 RMK AO2 SLP164 6//// T01220028 10133 20056 58023 PNO $

More Conditions Fewer Conditions

10-Day Weather Forecast

Almanac

Astronomy

Oct. 20, 2014 Rise Set
Actual Time 7:02 AM EDT 5:55 PM EDT
Civil Twilight 6:34 AM EDT 6:23 PM EDT
Nautical Twilight 6:01 AM EDT 6:56 PM EDT
Astronomical Twilight 5:29 AM EDT 7:28 PM EDT
Moon 3:45 AM EDT 4:18 PM EDT
Length of Visible Light 11h 49m
Length of Day
10h 53m
Waning Crescent, 10% of the Moon is Illuminated
Today
Waning Crescent
Oct 23
New
Oct 30
First Quarter
Nov 6
Full
Nov 14
Last Quarter

Today's Extremes

State Highs State Lows

Community

WunderPhotos

Upload Photos

1,763,446 photos uploaded!

WunderBlogs® & News

Nearby

Air Quality

  Air Quality AQ Index Pollutant
Yesterday Good
OZONE
Yesterday Good
PM2.5
Current Good
PM2.5
Current Good
OZONE
Monday Good
PM2.5
Monday Good
OZONE
Tuesday Good
PM2.5
Wednesday Good
PM2.5
Thursday Good
PM2.5

Snow Depth

Station Depth Elevation
No new snow has been reported.

Earthquake Activity

City Distance Mag. Time & Date
No recent earthquake activity has been reported nearby.
Minimum magnitude displayed is 2.5.

Coastal Water Temperatures

Place Temperature
Newport, RI 61.0 °F
Woods Hole, MA 62.1 °F
Fall River, MA 62.1 °F
Conimicut Light, RI 61.0 °F

Nearby Weather Stations